createdAt,value
2022-08-09T00:01:54.722Z,1.15
2022-08-09T00:06:56.987Z,1.33
2022-08-09T00:12:04.372Z,1.20
2022-08-09T00:17:06.808Z,1.38
2022-08-09T00:22:08.359Z,1.30
2022-08-09T00:27:12.933Z,1.30
2022-08-09T00:32:25.382Z,1.23
2022-08-09T00:37:32.396Z,1.48
2022-08-09T00:44:19.390Z,1.30
2022-08-09T00:47:55.686Z,2.10
2022-08-09T00:52:57.491Z,1.50
2022-08-09T00:58:00.251Z,1.58
2022-08-09T01:03:13.689Z,1.70
2022-08-09T01:08:27.022Z,1.60
2022-08-09T01:13:53.132Z,1.50
2022-08-09T01:19:04.750Z,1.60
2022-08-09T01:24:15.386Z,1.60
2022-08-09T01:29:21.687Z,1.80
2022-08-09T01:34:32.969Z,1.70
2022-08-09T01:39:37.957Z,1.83
2022-08-09T01:44:41.314Z,2.10
2022-08-09T01:49:48.771Z,2.20
2022-08-09T01:54:57.590Z,1.98
2022-08-09T02:00:19.167Z,2.65
2022-08-09T02:05:37.871Z,2.33
2022-08-09T02:10:51.666Z,2.88
2022-08-09T02:15:56.285Z,2.35
2022-08-09T02:21:02.834Z,2.25
2022-08-09T02:26:05.228Z,2.17
2022-08-09T02:31:18.950Z,2.17
2022-08-09T02:36:29.821Z,2.10
2022-08-09T02:41:49.468Z,2.25
2022-08-09T02:46:55.929Z,2.33
2022-08-09T02:52:00.103Z,2.50
2022-08-09T03:02:25.733Z,2.25
2022-08-09T03:07:30.302Z,2.22
2022-08-09T03:12:34.450Z,2.30
2022-08-09T03:17:38.069Z,1.80
2022-08-09T03:22:44.428Z,2.22
2022-08-09T03:27:50.578Z,3.40
2022-08-09T03:32:55.293Z,2.88
2022-08-09T03:37:58.555Z,2.50
2022-08-09T03:43:00.295Z,2.30
2022-08-09T03:48:05.392Z,1.98
2022-08-09T03:53:10.597Z,2.10
2022-08-09T03:58:16.164Z,2.08
2022-08-09T04:03:24.857Z,2.38
2022-08-09T04:08:39.789Z,2.33
2022-08-09T04:14:37.247Z,1.88
2022-08-09T04:19:02.819Z,2.60
2022-08-09T04:24:12.563Z,2.40
2022-08-09T04:29:15.749Z,2.35
2022-08-09T04:34:19.192Z,2.72
2022-08-09T04:39:34.242Z,2.60
2022-08-09T04:44:49.202Z,2.60
2022-08-09T04:49:54.281Z,2.83
2022-08-09T04:54:59.297Z,2.15
2022-08-09T05:00:01.023Z,2.55
2022-08-09T05:05:10.058Z,2.58
2022-08-09T05:10:13.043Z,2.80
2022-08-09T05:15:24.849Z,2.88
2022-08-09T05:20:36.038Z,2.65
2022-08-09T05:25:38.297Z,2.08
2022-08-09T05:30:48.019Z,2.55
2022-08-09T05:35:50.022Z,2.53
2022-08-09T05:40:52.543Z,4.72
2022-08-09T05:45:57.036Z,4.72
2022-08-09T05:51:30.092Z,4.80
2022-08-09T05:56:20.998Z,4.05
2022-08-09T06:01:33.465Z,3.83
2022-08-09T06:06:35.775Z,3.30
2022-08-09T06:11:41.151Z,2.75
2022-08-09T06:16:58.486Z,3.13
2022-08-09T06:22:06.895Z,3.38
2022-08-09T06:27:16.656Z,3.53
2022-08-09T06:32:59.006Z,3.42
2022-08-09T06:37:52.899Z,2.20
2022-08-09T06:43:03.167Z,2.60
2022-08-09T06:48:04.783Z,1.98
2022-08-09T06:53:06.616Z,2.67
2022-08-09T06:58:08.152Z,1.60
2022-08-09T07:03:30.805Z,2.03
2022-08-09T07:08:34.648Z,2.22
2022-08-09T07:14:03.889Z,1.55
2022-08-09T07:18:58.397Z,1.55
2022-08-09T07:23:59.883Z,1.33
2022-08-09T07:29:12.214Z,1.70
2022-08-09T07:34:21.090Z,1.40
2022-08-09T07:39:41.259Z,1.50
2022-08-09T07:44:52.004Z,1.75
2022-08-09T07:50:08.300Z,1.30
2022-08-09T07:55:11.502Z,1.10
2022-08-09T08:00:13.464Z,0.70
2022-08-09T08:05:22.451Z,1.40
2022-08-09T08:10:27.342Z,0.60
2022-08-09T08:15:28.987Z,0.80
2022-08-09T08:20:36.932Z,0.73
2022-08-09T08:25:40.103Z,0.60
2022-08-09T08:30:47.738Z,1.10
2022-08-09T08:35:59.642Z,1.10
2022-08-09T08:41:06.166Z,1.42
2022-08-09T08:46:33.513Z,0.60
2022-08-09T08:51:41.580Z,0.50
2022-08-09T08:56:54.594Z,0.70
2022-08-09T09:01:59.529Z,0.90
2022-08-09T09:07:08.908Z,0.80
2022-08-09T09:12:12.285Z,1.05
2022-08-09T09:17:18.876Z,0.88
2022-08-09T09:22:26.531Z,0.73
2022-08-09T09:28:03.748Z,0.77
2022-08-09T09:33:15.707Z,0.38
2022-08-09T09:43:41.374Z,0.60
2022-08-09T09:49:04.709Z,0.60
2022-08-09T09:54:17.869Z,1.13
2022-08-09T09:59:35.372Z,0.70
2022-08-09T10:04:38.098Z,0.45
2022-08-09T10:09:54.561Z,0.70
2022-08-09T10:20:35.425Z,0.70
2022-08-09T10:26:05.972Z,0.98
2022-08-09T10:36:21.816Z,0.90
2022-08-09T10:41:23.834Z,1.13
2022-08-09T10:47:03.878Z,1.50
2022-08-09T10:52:42.929Z,0.77
2022-08-09T10:57:46.793Z,0.90
2022-08-09T11:03:11.410Z,0.70
2022-08-09T11:08:46.965Z,0.70
2022-08-09T11:14:28.174Z,0.85
2022-08-09T11:20:11.229Z,0.98
2022-08-09T11:25:26.034Z,2.42
2022-08-09T11:30:47.940Z,0.65
2022-08-09T11:36:01.002Z,1.70
2022-08-09T11:41:16.129Z,0.77
2022-08-09T11:46:26.824Z,0.60
2022-08-09T11:53:00.982Z,0.80
2022-08-09T11:57:59.744Z,0.65
2022-08-09T12:03:09.875Z,0.90
2022-08-09T12:08:24.972Z,1.27
2022-08-09T12:14:11.079Z,1.20
2022-08-09T12:18:55.758Z,1.27
2022-08-09T12:24:08.828Z,1.35
2022-08-09T12:29:33.055Z,0.82
2022-08-09T12:34:40.208Z,0.90
2022-08-09T12:39:41.831Z,0.82
2022-08-09T12:44:46.427Z,1.30
2022-08-09T12:50:12.001Z,0.80
2022-08-09T12:56:13.651Z,0.90
2022-08-09T13:00:49.247Z,0.63
2022-08-09T13:06:14.346Z,0.70
2022-08-09T13:11:24.278Z,0.60
2022-08-09T13:16:45.873Z,0.68
2022-08-09T13:22:36.266Z,0.60
2022-08-09T13:27:28.876Z,0.60
2022-08-09T13:32:50.336Z,0.52
2022-08-09T13:37:53.305Z,0.50
2022-08-09T13:42:56.096Z,0.50
2022-08-09T13:47:59.192Z,0.52
2022-08-09T13:53:00.884Z,1.00
2022-08-09T13:58:02.964Z,0.90
2022-08-09T14:04:01.670Z,0.65
2022-08-09T14:08:29.787Z,0.77
2022-08-09T14:14:22.122Z,0.88
2022-08-09T14:18:53.081Z,1.30
2022-08-09T14:24:01.257Z,0.90
2022-08-09T14:30:03.870Z,0.95
2022-08-09T14:34:36.099Z,1.30
2022-08-09T14:44:59.811Z,0.90
2022-08-09T14:50:03.400Z,0.90
2022-08-09T14:55:06.971Z,1.27
2022-08-09T15:00:10.348Z,6.75
2022-08-09T15:05:11.840Z,0.65
2022-08-09T15:10:16.944Z,0.52
2022-08-09T15:15:18.624Z,0.82
2022-08-09T15:21:58.156Z,0.73
2022-08-09T15:25:43.257Z,0.80
2022-08-09T15:30:57.136Z,0.70
2022-08-09T15:36:05.913Z,1.30
2022-08-09T15:41:09.533Z,1.33
2022-08-09T15:46:33.324Z,1.10
2022-08-09T15:52:00.755Z,2.40
2022-08-09T15:56:54.405Z,0.80
2022-08-09T16:01:56.584Z,0.70
2022-08-09T16:06:58.770Z,0.93
2022-08-09T16:12:03.983Z,0.60
2022-08-09T16:17:05.606Z,0.50
2022-08-09T16:22:07.181Z,0.60
2022-08-09T16:27:18.413Z,0.40
2022-08-09T16:32:49.669Z,0.60
2022-08-09T16:37:53.871Z,0.55
2022-08-09T16:42:55.914Z,0.52
2022-08-09T16:48:38.091Z,0.60
2022-08-09T16:53:19.426Z,0.60
2022-08-09T16:58:23.616Z,0.68
2022-08-09T17:03:25.187Z,0.68
2022-08-09T17:08:46.287Z,0.95
2022-08-09T17:14:01.883Z,0.50
2022-08-09T17:19:05.307Z,1.00
2022-08-09T17:24:27.544Z,0.50
2022-08-09T17:29:37.912Z,0.60
2022-08-09T17:35:03.755Z,0.95
2022-08-09T17:40:17.011Z,0.60
2022-08-09T17:45:27.173Z,0.88
2022-08-09T17:50:39.322Z,0.57
2022-08-09T17:55:50.275Z,1.20
2022-08-09T18:00:58.458Z,0.57
2022-08-09T18:06:00.996Z,0.98
2022-08-09T18:11:03.890Z,1.42
2022-08-09T18:16:12.927Z,0.43
2022-08-09T18:21:22.822Z,0.88
2022-08-09T18:26:25.492Z,0.70
2022-08-09T18:31:51.097Z,0.35
2022-08-09T18:36:53.243Z,0.30
2022-08-09T18:41:56.089Z,0.90
2022-08-09T18:47:08.093Z,1.02
2022-08-09T18:52:12.629Z,0.88
2022-08-09T18:57:15.511Z,0.60
2022-08-09T19:02:18.414Z,1.42
2022-08-09T19:07:20.159Z,0.57
2022-08-09T19:12:21.989Z,0.65
2022-08-09T19:17:24.080Z,0.90
2022-08-09T19:22:33.068Z,1.05
2022-08-09T19:27:35.892Z,0.60
2022-08-09T19:32:42.615Z,0.77
2022-08-09T19:37:56.037Z,0.80
2022-08-09T19:42:58.946Z,0.63
2022-08-09T19:48:05.061Z,0.50
2022-08-09T19:53:06.789Z,0.50
2022-08-09T19:58:16.685Z,0.60
2022-08-09T20:04:11.216Z,1.35
2022-08-09T20:08:40.450Z,0.50
2022-08-09T20:13:54.260Z,0.60
2022-08-09T20:19:42.929Z,0.70
2022-08-09T20:24:29.165Z,0.60
2022-08-09T20:29:37.802Z,0.40
2022-08-09T20:34:40.088Z,0.70
2022-08-09T20:40:15.320Z,0.60
2022-08-09T20:45:56.455Z,0.70
2022-08-09T20:50:47.331Z,0.50
2022-08-09T20:56:00.634Z,0.57
2022-08-09T21:01:32.996Z,0.60
2022-08-09T21:06:29.414Z,0.60
2022-08-09T21:16:54.984Z,0.63
2022-08-09T21:21:57.873Z,0.63
2022-08-09T21:26:59.511Z,0.85
2022-08-09T21:32:01.049Z,0.60
2022-08-09T21:37:18.313Z,0.68
2022-08-09T21:42:28.525Z,0.55
2022-08-09T21:47:30.306Z,1.00
2022-08-09T21:52:32.901Z,1.10
2022-08-09T21:57:39.148Z,0.98
2022-08-09T22:02:59.911Z,1.25
2022-08-09T22:08:01.628Z,1.40
2022-08-09T22:13:07.267Z,0.80
2022-08-09T22:18:12.041Z,0.90
2022-08-09T22:23:14.073Z,0.88
2022-08-09T22:28:21.018Z,0.90
2022-08-09T22:33:49.160Z,0.95
2022-08-09T22:38:55.965Z,1.20
2022-08-09T22:44:04.201Z,1.70
2022-08-09T22:49:10.310Z,0.85
2022-08-09T22:54:12.361Z,0.50
2022-08-09T22:59:56.329Z,0.68
2022-08-09T23:04:38.246Z,1.00
2022-08-09T23:09:40.443Z,1.27
2022-08-09T23:14:42.772Z,1.00
2022-08-09T23:20:00.626Z,1.15
2022-08-09T23:25:06.549Z,1.00
2022-08-09T23:30:08.445Z,0.98
2022-08-09T23:35:10.129Z,0.85
2022-08-09T23:40:13.003Z,0.90
2022-08-09T23:45:36.357Z,0.90
2022-08-09T23:50:36.282Z,1.30
2022-08-09T23:55:38.124Z,1.50
